createdAt,value
2023-04-27T00:00:22.354Z,98559.06
2023-04-27T00:03:25.118Z,98551.13
2023-04-27T00:06:28.496Z,98557.41
2023-04-27T00:09:31.032Z,98551.25
2023-04-27T00:12:34.262Z,98554.03
2023-04-27T00:15:36.876Z,98543.56
2023-04-27T00:18:39.976Z,98556.94
2023-04-27T00:21:42.492Z,98554.41
2023-04-27T00:24:45.387Z,98561.56
2023-04-27T00:27:48.084Z,98551.81
2023-04-27T00:30:54.348Z,98557.25
2023-04-27T00:33:56.913Z,98558.16
2023-04-27T00:36:59.746Z,98558.09
2023-04-27T00:40:05.156Z,98551.94
2023-04-27T00:43:08.056Z,98552.75
2023-04-27T00:46:12.283Z,98552.94
2023-04-27T00:49:15.806Z,98551.06
2023-04-27T00:52:18.699Z,98557.31
2023-04-27T00:55:21.643Z,98559.09
2023-04-27T00:58:25.637Z,98560.94
2023-04-27T01:01:30.387Z,98560.94
2023-04-27T01:04:33.222Z,98557.41
2023-04-27T01:07:40.142Z,98562.72
2023-04-27T01:10:42.765Z,98558.34
2023-04-27T01:13:46.310Z,98561.91
2023-04-27T01:16:49.106Z,98567.25
2023-04-27T01:19:55.315Z,98569.97
2023-04-27T01:22:59.040Z,98569.16
2023-04-27T01:26:02.043Z,98567.31
2023-04-27T01:29:04.534Z,98576.28
2023-04-27T01:32:07.497Z,98578.06
2023-04-27T01:35:11.109Z,98570.97
2023-04-27T01:38:14.032Z,98584.31
2023-04-27T01:41:19.674Z,98578.22
2023-04-27T01:44:24.086Z,98579.16
2023-04-27T01:47:27.651Z,98583.66
2023-04-27T01:50:30.844Z,98587.22
2023-04-27T01:53:34.196Z,98582.63
2023-04-27T01:56:36.989Z,98588.09
2023-04-27T01:59:39.780Z,98589.09
2023-04-27T02:02:42.893Z,98577.59
2023-04-27T02:05:47.145Z,98583.03
2023-04-27T02:08:49.775Z,98591.06
2023-04-27T02:11:52.630Z,98587.59
2023-04-27T02:14:55.893Z,98592.09
2023-04-27T02:17:59.713Z,98592.09
2023-04-27T02:21:02.331Z,98591.09
2023-04-27T02:24:05.652Z,98602.69
2023-04-27T02:27:08.218Z,98600.00
2023-04-27T02:30:12.268Z,98603.56
2023-04-27T02:33:15.375Z,98597.38
2023-04-27T02:36:18.675Z,98599.16
2023-04-27T02:39:21.382Z,98585.19
2023-04-27T02:42:24.221Z,98602.84
2023-04-27T02:45:26.844Z,98602.81
2023-04-27T02:48:31.103Z,98611.69
2023-04-27T02:51:33.736Z,98609.00
2023-04-27T02:54:36.695Z,98610.75
2023-04-27T02:57:39.220Z,98612.63
2023-04-27T03:00:43.086Z,98608.25
2023-04-27T03:03:47.748Z,98617.06
2023-04-27T03:06:50.972Z,98615.47
2023-04-27T03:09:53.500Z,98619.97
2023-04-27T03:12:57.654Z,98625.31
2023-04-27T03:16:00.498Z,98616.47
2023-04-27T03:19:03.933Z,98625.38
2023-04-27T03:22:06.869Z,98631.66
2023-04-27T03:25:11.172Z,98629.16
2023-04-27T03:28:14.471Z,98632.69
2023-04-27T03:31:17.466Z,98629.13
2023-04-27T03:34:21.791Z,98623.72
2023-04-27T03:37:24.796Z,98637.88
2023-04-27T03:40:28.662Z,98638.75
2023-04-27T03:43:31.531Z,98644.06
2023-04-27T03:46:34.427Z,98652.06
2023-04-27T03:49:38.233Z,98649.50
2023-04-27T03:52:42.134Z,98654.81
2023-04-27T03:55:47.213Z,98658.41
2023-04-27T03:58:50.276Z,98666.44
2023-04-27T04:01:53.361Z,98661.97
2023-04-27T04:04:56.626Z,98671.66
2023-04-27T04:07:59.744Z,98662.81
2023-04-27T04:11:03.865Z,98666.34
2023-04-27T04:14:06.683Z,98673.38
2023-04-27T04:17:11.005Z,98682.19
2023-04-27T04:20:16.276Z,98679.41
2023-04-27T04:23:19.105Z,98681.06
2023-04-27T04:26:23.525Z,98690.69
2023-04-27T04:29:27.230Z,98687.94
2023-04-27T04:32:31.437Z,98694.16
2023-04-27T04:35:34.404Z,98698.53
2023-04-27T04:38:37.139Z,98697.69
2023-04-27T04:41:40.643Z,98698.63
2023-04-27T04:44:43.431Z,98703.03
2023-04-27T04:47:47.399Z,98707.44
2023-04-27T04:50:50.119Z,98708.34
2023-04-27T04:53:54.837Z,98710.09
2023-04-27T04:56:59.240Z,98710.97
2023-04-27T05:00:02.569Z,98713.56
2023-04-27T05:03:07.743Z,98706.22
2023-04-27T05:06:10.884Z,98712.09
2023-04-27T05:09:13.761Z,98729.16
2023-04-27T05:12:17.836Z,98723.06
2023-04-27T05:15:20.992Z,98719.69
2023-04-27T05:18:23.957Z,98734.41
2023-04-27T05:21:26.437Z,98726.06
2023-04-27T05:24:29.326Z,98735.53
2023-04-27T05:27:32.094Z,98740.72
2023-04-27T05:30:35.699Z,98732.12
2023-04-27T05:33:38.289Z,98739.81
2023-04-27T05:36:41.111Z,98738.91
2023-04-27T05:39:43.822Z,98746.50
2023-04-27T05:42:47.100Z,98753.53
2023-04-27T05:45:49.827Z,98755.00
2023-04-27T05:48:52.986Z,98752.72
2023-04-27T05:51:55.740Z,98749.19
2023-04-27T05:54:59.140Z,98750.00
2023-04-27T05:58:08.374Z,98739.31
2023-04-27T06:01:12.648Z,98758.53
2023-04-27T06:04:15.866Z,98757.44
2023-04-27T06:07:18.746Z,98763.47
2023-04-27T06:10:21.717Z,98762.38
2023-04-27T06:13:24.357Z,98773.84
2023-04-27T06:16:27.356Z,98772.63
2023-04-27T06:19:30.063Z,98770.91
2023-04-27T06:22:33.518Z,98775.13
2023-04-27T06:25:38.808Z,98772.78
2023-04-27T06:28:41.672Z,98778.59
2023-04-27T06:31:44.402Z,98774.69
2023-04-27T06:34:47.649Z,98776.53
2023-04-27T06:37:50.190Z,98777.91
2023-04-27T06:40:53.318Z,98777.66
2023-04-27T06:43:57.469Z,98780.94
2023-04-27T06:47:01.548Z,98776.06
2023-04-27T06:50:04.495Z,98783.69
2023-04-27T06:53:08.298Z,98790.38
2023-04-27T06:56:12.055Z,98780.47
2023-04-27T06:59:15.317Z,98784.75
2023-04-27T07:02:18.063Z,98783.78
2023-04-27T07:05:21.179Z,98798.72
2023-04-27T07:08:23.732Z,98796.25
2023-04-27T07:11:26.583Z,98791.72
2023-04-27T07:14:29.763Z,98796.63
2023-04-27T07:17:35.439Z,98799.22
2023-04-27T07:20:38.345Z,98796.78
2023-04-27T07:23:41.677Z,98791.69
2023-04-27T07:26:44.663Z,98797.53
2023-04-27T07:29:48.206Z,98803.56
2023-04-27T07:32:54.525Z,98800.75
2023-04-27T07:35:58.127Z,98803.22
2023-04-27T07:39:01.414Z,98803.63
2023-04-27T07:42:04.497Z,98806.72
2023-04-27T07:45:08.511Z,98806.13
2023-04-27T07:48:11.475Z,98808.28
2023-04-27T07:51:15.996Z,98812.56
2023-04-27T07:54:18.825Z,98813.38
2023-04-27T07:57:21.652Z,98814.88
2023-04-27T08:00:27.852Z,98805.06
2023-04-27T08:03:30.837Z,98803.19
2023-04-27T08:06:34.340Z,98798.81
2023-04-27T08:09:37.994Z,98808.06
2023-04-27T08:12:40.714Z,98807.88
2023-04-27T08:15:43.537Z,98802.53
2023-04-27T08:18:46.270Z,98805.81
2023-04-27T08:21:49.017Z,98801.50
2023-04-27T08:24:51.645Z,98807.25
2023-04-27T08:27:54.528Z,98809.84
2023-04-27T08:30:57.049Z,98821.53
2023-04-27T08:33:59.914Z,98820.63
2023-04-27T08:37:04.347Z,98808.72
2023-04-27T08:40:08.217Z,98806.38
2023-04-27T08:43:11.256Z,98820.22
2023-04-27T08:46:14.129Z,98800.78
2023-04-27T08:49:17.587Z,98810.66
2023-04-27T08:52:20.599Z,98817.28
2023-04-27T08:55:23.872Z,98813.16
2023-04-27T08:58:37.305Z,98820.47
2023-04-27T09:01:49.806Z,98825.13
2023-04-27T09:04:52.911Z,98819.84
2023-04-27T09:08:05.719Z,98817.84
2023-04-27T09:11:08.918Z,98812.37
2023-04-27T09:14:19.903Z,98810.22
2023-04-27T09:17:33.568Z,98814.06
2023-04-27T09:20:43.287Z,98798.78
2023-04-27T09:23:46.526Z,98800.59
2023-04-27T09:26:50.025Z,98800.38
2023-04-27T09:29:52.890Z,98791.44
2023-04-27T09:32:57.795Z,98793.72
2023-04-27T09:36:03.193Z,98793.50
2023-04-27T09:39:06.107Z,98782.44
2023-04-27T09:42:09.360Z,98795.47
2023-04-27T09:45:12.343Z,98788.28
2023-04-27T09:48:15.618Z,98787.69
2023-04-27T09:51:18.299Z,98784.81
2023-04-27T09:54:22.825Z,98790.75
2023-04-27T09:57:32.301Z,98783.13
2023-04-27T10:01:08.908Z,98769.59
2023-04-27T10:04:36.767Z,98777.03
2023-04-27T10:07:41.086Z,98777.19
2023-04-27T10:10:48.303Z,98768.34
2023-04-27T10:13:54.458Z,98764.34
2023-04-27T10:16:59.032Z,98764.94
2023-04-27T10:20:04.035Z,98758.69
2023-04-27T10:23:07.131Z,98766.47
2023-04-27T10:26:09.680Z,98752.97
2023-04-27T10:29:16.331Z,98762.16
2023-04-27T10:32:21.472Z,98761.88
2023-04-27T10:35:33.615Z,98769.75
2023-04-27T10:38:40.541Z,98754.59
2023-04-27T10:41:51.756Z,98760.38
2023-04-27T10:44:57.167Z,98758.94
2023-04-27T10:48:01.324Z,98759.75
2023-04-27T10:51:04.413Z,98765.75
2023-04-27T10:54:07.171Z,98756.75
2023-04-27T10:57:10.914Z,98763.28
2023-04-27T11:00:16.522Z,98756.94
2023-04-27T11:03:22.117Z,98751.72
2023-04-27T11:06:25.237Z,98760.00
2023-04-27T11:09:28.244Z,98760.94
2023-04-27T11:12:32.194Z,98764.56
2023-04-27T11:15:55.697Z,98757.44
2023-04-27T11:19:05.284Z,98754.81
2023-04-27T11:22:07.879Z,98749.63
2023-04-27T11:25:11.224Z,98751.81
2023-04-27T11:28:20.419Z,98759.41
2023-04-27T11:31:23.714Z,98748.78
2023-04-27T11:34:26.580Z,98757.31
2023-04-27T11:37:29.793Z,98745.59
2023-04-27T11:40:34.511Z,98746.22
2023-04-27T11:43:42.495Z,98744.78
2023-04-27T11:46:47.472Z,98748.59
2023-04-27T11:49:51.409Z,98732.44
2023-04-27T11:52:54.227Z,98749.06
2023-04-27T11:56:00.094Z,98731.28
2023-04-27T11:59:03.173Z,98738.09
2023-04-27T12:02:06.198Z,98734.81
2023-04-27T12:05:10.204Z,98742.72
2023-04-27T12:08:13.015Z,98734.59
2023-04-27T12:11:15.885Z,98732.62
2023-04-27T12:14:19.905Z,98736.25
2023-04-27T12:17:23.357Z,98740.84
2023-04-27T12:20:26.160Z,98730.06
2023-04-27T12:23:29.389Z,98736.81
2023-04-27T12:26:31.962Z,98735.13
2023-04-27T12:29:35.299Z,98734.56
2023-04-27T12:32:37.990Z,98738.56
2023-04-27T12:35:41.342Z,98731.69
2023-04-27T12:38:44.144Z,98740.84
2023-04-27T12:41:48.076Z,98733.06
2023-04-27T12:44:51.995Z,98727.03
2023-04-27T12:48:03.466Z,98710.97
2023-04-27T12:51:07.105Z,98734.53
2023-04-27T12:54:11.126Z,98721.94
2023-04-27T12:57:13.800Z,98719.31
2023-04-27T13:00:17.429Z,98725.34
2023-04-27T13:03:20.122Z,98725.69
2023-04-27T13:06:23.532Z,98719.16
2023-04-27T13:09:26.251Z,98722.44
2023-04-27T13:12:29.334Z,98695.84
2023-04-27T13:15:31.898Z,98711.50
2023-04-27T13:18:35.593Z,98726.06
2023-04-27T13:21:38.420Z,98729.78
2023-04-27T13:24:42.320Z,98722.28
2023-04-27T13:27:44.847Z,98720.84
2023-04-27T13:30:48.915Z,98718.72
2023-04-27T13:33:51.500Z,98723.34
2023-04-27T13:36:54.593Z,98722.91
2023-04-27T13:39:57.117Z,98720.84
2023-04-27T13:43:00.047Z,98715.38
2023-04-27T13:46:03.162Z,98724.94
2023-04-27T13:49:06.541Z,98724.03
2023-04-27T13:52:09.969Z,98719.31
2023-04-27T13:55:13.401Z,98726.72
2023-04-27T13:58:16.204Z,98719.19
2023-04-27T14:01:20.143Z,98721.03
2023-04-27T14:04:23.202Z,98731.56
2023-04-27T14:07:26.026Z,98718.03
2023-04-27T14:10:28.923Z,98723.19
2023-04-27T14:13:31.579Z,98724.69
2023-04-27T14:16:34.454Z,98713.03
2023-04-27T14:19:37.363Z,98726.34
2023-04-27T14:22:40.493Z,98737.72
2023-04-27T14:25:42.927Z,98739.47
2023-04-27T14:28:46.171Z,98732.78
2023-04-27T14:31:48.868Z,98738.91
2023-04-27T14:34:52.159Z,98742.16
2023-04-27T14:37:56.783Z,98742.53
2023-04-27T14:40:59.638Z,98742.63
2023-04-27T14:44:02.207Z,98750.66
2023-04-27T14:47:06.406Z,98743.47
2023-04-27T14:50:09.316Z,98743.37
2023-04-27T14:53:14.251Z,98745.63
2023-04-27T14:56:16.952Z,98742.63
2023-04-27T14:59:20.249Z,98747.75
2023-04-27T15:02:23.298Z,98745.75
2023-04-27T15:05:26.297Z,98747.41
2023-04-27T15:08:30.669Z,98742.66
2023-04-27T15:11:35.400Z,98741.59
2023-04-27T15:14:37.940Z,98738.56
2023-04-27T15:17:41.703Z,98739.84
2023-04-27T15:20:44.731Z,98740.69
2023-04-27T15:23:48.046Z,98738.16
2023-04-27T15:26:50.934Z,98737.25
2023-04-27T15:29:54.549Z,98733.78
2023-04-27T15:32:57.197Z,98733.06
2023-04-27T15:36:00.249Z,98734.56
2023-04-27T15:39:02.814Z,98734.13
2023-04-27T15:42:05.728Z,98737.84
2023-04-27T15:45:10.111Z,98736.13
2023-04-27T15:48:13.764Z,98724.66
2023-04-27T15:51:16.820Z,98731.72
2023-04-27T15:54:19.664Z,98738.28
2023-04-27T15:57:22.264Z,98742.81
2023-04-27T16:00:25.475Z,98729.97
2023-04-27T16:03:28.560Z,98740.94
2023-04-27T16:06:33.188Z,98743.41
2023-04-27T16:09:36.811Z,98739.56
2023-04-27T16:12:40.486Z,98734.22
2023-04-27T16:15:43.269Z,98734.81
2023-04-27T16:18:46.296Z,98736.37
2023-04-27T16:21:49.645Z,98730.09
2023-04-27T16:24:52.271Z,98742.59
2023-04-27T16:27:55.412Z,98746.97
2023-04-27T16:30:58.753Z,98742.91
2023-04-27T16:34:01.694Z,98743.50
2023-04-27T16:37:04.467Z,98752.13
2023-04-27T16:40:08.427Z,98752.00
2023-04-27T16:43:11.311Z,98744.50
2023-04-27T16:46:15.359Z,98754.81
2023-04-27T16:49:18.134Z,98748.97
2023-04-27T16:52:20.982Z,98761.53
2023-04-27T16:55:23.583Z,98764.84
2023-04-27T16:58:26.655Z,98766.28
2023-04-27T17:01:30.196Z,98770.16
2023-04-27T17:04:35.407Z,98766.75
2023-04-27T17:07:38.193Z,98767.75
2023-04-27T17:10:41.603Z,98771.59
2023-04-27T17:13:44.245Z,98776.13
2023-04-27T17:16:47.837Z,98771.06
2023-04-27T17:19:50.454Z,98773.97
2023-04-27T17:22:53.438Z,98780.38
2023-04-27T17:25:56.144Z,98781.31
2023-04-27T17:29:01.346Z,98776.91
2023-04-27T17:32:04.742Z,98773.41
2023-04-27T17:35:08.094Z,98783.56
2023-04-27T17:38:11.760Z,98784.06
2023-04-27T17:41:14.648Z,98785.69
2023-04-27T17:44:17.468Z,98789.53
2023-04-27T17:47:22.277Z,98787.97
2023-04-27T17:50:26.169Z,98791.22
2023-04-27T17:53:29.477Z,98797.16
2023-04-27T17:56:32.442Z,98800.16
2023-04-27T17:59:36.348Z,98799.44
2023-04-27T18:02:39.464Z,98802.41
2023-04-27T18:05:42.483Z,98811.75
2023-04-27T18:08:45.447Z,98811.25
2023-04-27T18:11:48.584Z,98802.53
2023-04-27T18:14:52.004Z,98806.50
2023-04-27T18:17:55.311Z,98814.81
2023-04-27T18:20:58.128Z,98816.22
2023-04-27T18:24:01.252Z,98821.22
2023-04-27T18:27:04.171Z,98826.19
2023-04-27T18:30:10.378Z,98822.19
2023-04-27T18:33:13.227Z,98834.13
2023-04-27T18:36:16.325Z,98838.00
2023-04-27T18:39:20.387Z,98833.78
2023-04-27T18:42:23.793Z,98834.87
2023-04-27T18:45:26.730Z,98829.72
2023-04-27T18:48:29.792Z,98841.50
2023-04-27T18:51:32.520Z,98852.50
2023-04-27T18:54:35.360Z,98848.28
2023-04-27T18:57:38.269Z,98854.69
2023-04-27T19:00:41.634Z,98846.59
2023-04-27T19:03:45.091Z,98861.16
2023-04-27T19:06:50.027Z,98860.53
2023-04-27T19:09:55.038Z,98859.81
2023-04-27T19:12:58.632Z,98860.88
2023-04-27T19:16:01.765Z,98871.00
2023-04-27T19:19:04.685Z,98866.88
2023-04-27T19:22:08.157Z,98869.00
2023-04-27T19:25:11.288Z,98866.50
2023-04-27T19:28:16.417Z,98869.41
2023-04-27T19:31:19.670Z,98880.28
2023-04-27T19:34:22.547Z,98866.88
2023-04-27T19:37:27.501Z,98867.09
2023-04-27T19:40:30.803Z,98868.25
2023-04-27T19:43:34.179Z,98868.41
2023-04-27T19:46:37.036Z,98868.47
2023-04-27T19:49:40.310Z,98883.91
2023-04-27T19:52:43.218Z,98875.09
2023-04-27T19:55:46.081Z,98870.81
2023-04-27T19:58:48.843Z,98868.16
2023-04-27T20:01:51.963Z,98866.31
2023-04-27T20:04:55.257Z,98871.75
2023-04-27T20:07:58.419Z,98868.34
2023-04-27T20:11:01.696Z,98867.53
2023-04-27T20:14:04.627Z,98868.47
2023-04-27T20:17:07.840Z,98869.44
2023-04-27T20:20:11.460Z,98866.88
2023-04-27T20:23:14.805Z,98876.91
2023-04-27T20:26:17.803Z,98877.97
2023-04-27T20:29:20.925Z,98874.47
2023-04-27T20:32:23.548Z,98880.03
2023-04-27T20:35:27.785Z,98876.75
2023-04-27T20:38:30.615Z,98886.31
2023-04-27T20:41:34.242Z,98885.47
2023-04-27T20:44:39.068Z,98895.22
2023-04-27T20:47:42.109Z,98888.87
2023-04-27T20:50:45.729Z,98879.91
2023-04-27T20:53:48.575Z,98879.06
2023-04-27T20:56:57.824Z,98885.19
2023-04-27T21:00:00.898Z,98887.00
2023-04-27T21:03:04.233Z,98880.78
2023-04-27T21:06:07.392Z,98886.28
2023-04-27T21:09:10.395Z,98888.06
2023-04-27T21:12:14.842Z,98892.56
2023-04-27T21:15:17.481Z,98886.41
2023-04-27T21:18:29.803Z,98888.44
2023-04-27T21:21:33.218Z,98874.28
2023-04-27T21:24:36.327Z,98885.97
2023-04-27T21:27:41.871Z,98892.44
2023-04-27T21:30:45.157Z,98901.47
2023-04-27T21:33:47.940Z,98907.00
2023-04-27T21:36:50.934Z,98904.44
2023-04-27T21:39:53.544Z,98906.31
2023-04-27T21:42:56.761Z,98906.50
2023-04-27T21:45:59.764Z,98910.19
2023-04-27T21:49:03.400Z,98909.38
2023-04-27T21:52:06.105Z,98913.09
2023-04-27T21:55:10.065Z,98913.28
2023-04-27T21:58:12.767Z,98917.00
2023-04-27T22:01:15.718Z,98918.03
2023-04-27T22:04:18.993Z,98919.03
2023-04-27T22:07:21.997Z,98924.47
2023-04-27T22:10:25.030Z,98928.19
2023-04-27T22:13:27.659Z,98930.12
2023-04-27T22:16:30.592Z,98924.97
2023-04-27T22:19:33.958Z,98922.31
2023-04-27T22:22:37.693Z,98924.22
2023-04-27T22:25:42.834Z,98926.97
2023-04-27T22:28:46.027Z,98924.34
2023-04-27T22:31:48.708Z,98929.88
2023-04-27T22:34:51.639Z,98921.94
2023-04-27T22:37:56.963Z,98929.09
2023-04-27T22:40:59.882Z,98938.00
2023-04-27T22:44:04.484Z,98935.44
2023-04-27T22:47:07.474Z,98933.66
2023-04-27T22:50:11.318Z,98932.81
2023-04-27T22:53:14.220Z,98937.31
2023-04-27T22:56:16.745Z,98939.19
2023-04-27T22:59:25.678Z,98933.00
2023-04-27T23:02:28.829Z,98939.41
2023-04-27T23:05:32.630Z,98936.75
2023-04-27T23:08:37.267Z,98937.00
2023-04-27T23:11:40.821Z,98935.41
2023-04-27T23:14:43.735Z,98947.94
2023-04-27T23:17:46.781Z,98943.47
2023-04-27T23:20:54.685Z,98938.12
2023-04-27T23:23:57.636Z,98940.69
2023-04-27T23:27:01.268Z,98944.28
2023-04-27T23:30:04.970Z,98939.91
2023-04-27T23:33:07.644Z,98947.94
2023-04-27T23:36:10.882Z,98942.75
2023-04-27T23:39:13.871Z,98931.22
2023-04-27T23:42:17.197Z,98936.69
2023-04-27T23:45:20.921Z,98940.31
2023-04-27T23:48:23.821Z,98932.34
2023-04-27T23:51:27.227Z,98934.19
2023-04-27T23:54:33.183Z,98931.38
2023-04-27T23:57:35.716Z,98934.03
